Aviation Digital Data Service (ADDS)

Output produced by METARs form (0633 UTC 08 July 2015)
found at http://aviationweather.gov/adds/metars/
 
KMPV 080535Z 0806/0906 19008KT P6SM OVC090 
     FM080800 24007KT P6SM -SHRA OVC070 
     FM081100 30008KT P6SM OVC030 
     FM081300 31008KT P6SM OVC040 
     FM081600 32010KT P6SM SCT200